Zim Rio Grande — 9HNV9 — position and weather

sailwx.info

Track history (hours):
 
Tides and Currents Weather Stations Pressure Air Temp Water Temp Dewpoint Dewpoint Depression Visibility Wind Speed Wind Dir Waves Ship Positions

Zim Rio Grande

Last reported at 2014-Jul-18 15:25 UTC. Time now 2014-Jul-26 01:08 UTC.
Position N 36°45' W 001°45'.

Length 260 m; draft 11.6 m.

Type: Ship (hazmat cat A). MMSI: 249253000.

Date/timePositionNaut miles runAvg speedWind from/ knotsBaromVisibWave heightAir tempDewpointWater temp
2014-Jul-18 15:25N 36°45' W 001°45'5918.1
2014-Jul-18 12:09N 37°23' W 000°49'1827.9
2014-Jul-18 11:31N 37°36' W 000°33'1010.8
2014-Jul-18 10:33N 37°44' W 000°25'2623.7
2014-Jul-18 09:27N 38°06' W 000°08'910.6
2014-Jul-18 08:33N 38°15' W 000°02'1817.6
2014-Jul-18 07:31N 38°30' E 000°11'1817.4
2014-Jul-18 06:31N 38°44' E 000°24'1717.9
2014-Jul-18 05:33N 39°00' E 000°31'1818.1
2014-Jul-18 04:34N 39°17' E 000°39'1817.9
2014-Jul-18 03:33N 39°34' E 000°46'1817.6
2014-Jul-18 02:33N 39°51' E 000°53'1717.4
2014-Jul-18 01:33N 40°08' E 000°58'1717.2
2014-Jul-18 00:33N 40°25' E 001°03'1717.2
2014-Jul-17 23:33N 40°42' E 001°07'1817.7
2014-Jul-17 22:33N 40°59' E 001°11'7 5.5
2014-Jul-17 21:21N 41°05' E 001°13'0 0.0
2014-Jul-17 19:09N 41°05' E 001°13'0 0.0
2014-Jul-17 18:33N 41°05' E 001°13'0 0.0
2014-Jul-17 17:30N 41°05' E 001°13'0 0.0
2014-Jul-17 16:33N 41°05' E 001°13'0 0.0
2014-Jul-17 15:30N 41°05' E 001°13'0 0.0
2014-Jul-17 14:33N 41°05' E 001°13'0 0.0
2014-Jul-17 13:33N 41°05' E 001°13'0 0.0
2014-Jul-17 08:33N 41°05' E 001°13'0 0.0
2014-Jul-17 07:27N 41°05' E 001°13'0 0.0
2014-Jul-17 06:21N 41°05' E 001°13'0 0.0
2014-Jul-17 05:14N 41°05' E 001°13'2 2.6
2014-Jul-17 04:27N 41°03' E 001°12'1313.0
2014-Jul-17 03:29N 41°04' E 001°29'1414.9
2014-Jul-17 02:33N 41°06' E 001°48'1413.9
2014-Jul-17 01:32N 41°07' E 002°06'1514.2
2014-Jul-17 00:31N 41°09' E 002°25'1313.8
2014-Jul-16 23:33N 41°16' E 002°40'1514.5
2014-Jul-16 22:33N 41°23' E 002°57'1414.5
2014-Jul-16 21:33N 41°30' E 003°14'1514.5
2014-Jul-16 20:33N 41°37' E 003°31'1514.5
2014-Jul-16 19:31N 41°45' E 003°49'1814.4
2014-Jul-16 18:18N 41°54' E 004°09'1114.3
2014-Jul-16 17:33N 41°59' E 004°22'1414.3
2014-Jul-16 16:33N 42°06' E 004°38'1414.4
2014-Jul-16 15:33N 42°13' E 004°55'1414.3
2014-Jul-16 14:33N 42°20' E 005°12'1414.3
2014-Jul-16 13:33N 42°27' E 005°29'1414.3
2014-Jul-16 12:33N 42°34' E 005°46'1414.3
2014-Jul-16 11:33N 42°41' E 006°02'1414.2
2014-Jul-16 10:34N 42°48' E 006°19'1414.3
2014-Jul-16 09:33N 42°56' E 006°35'1414.3
2014-Jul-16 08:33N 43°04' E 006°52'1414.4
2014-Jul-16 07:33N 43°13' E 007°07'1414.3
2014-Jul-16 06:33N 43°22' E 007°23'1414.2
2014-Jul-16 05:33N 43°29' E 007°39'1414.3
2014-Jul-16 04:33N 43°38' E 007°55'1414.3
2014-Jul-16 03:33N 43°47' E 008°10'1414.3
2014-Jul-16 02:33N 43°56' E 008°25'1414.3
2014-Jul-16 01:33N 44°06' E 008°39'1414.3
2014-Jul-16 00:33N 44°17' E 008°53'8 7.7
2014-Jul-15 23:33N 44°24' E 008°54'0 0.1
2014-Jul-15 22:31N 44°24' E 008°54'0 0.0
2014-Jul-15 21:31N 44°24' E 008°54'0 0.0
2014-Jul-15 20:31N 44°24' E 008°54'0 0.0
2014-Jul-15 19:31N 44°24' E 008°54'0 0.0
2014-Jul-15 18:28N 44°24' E 008°54'0 0.0
2014-Jul-15 17:31N 44°24' E 008°54'0 0.0
2014-Jul-15 16:31N 44°24' E 008°54'0 0.0
2014-Jul-15 15:28N 44°24' E 008°54'0 0.0
2014-Jul-15 14:31N 44°24' E 008°54'0 0.0
2014-Jul-15 13:31N 44°24' E 008°54'0 0.0
2014-Jul-15 12:31N 44°24' E 008°54'0 0.0
2014-Jul-15 11:31N 44°24' E 008°54'0 0.0
2014-Jul-15 10:31N 44°24' E 008°54'0 0.0
2014-Jul-15 09:31N 44°24' E 008°54'0 0.0
2014-Jul-15 08:31N 44°24' E 008°54'2 2.6
2014-Jul-15 07:33N 44°23' E 008°57'1212.0
2014-Jul-15 06:33N 44°12' E 009°03'1717.2
2014-Jul-15 05:33N 43°56' E 009°11'1717.0
2014-Jul-15 04:33N 43°40' E 009°19'1717.3
2014-Jul-15 03:33N 43°23' E 009°27'1717.5
2014-Jul-15 02:33N 43°07' E 009°35'2417.7
2014-Jul-15 01:13N 42°44' E 009°46'73215.6
2014-Jul-13 02:19N 36°28' E 023°21'1316.8
2014-Jul-13 01:33N 36°41' E 023°22'2016.7
2014-Jul-13 00:22N 37°00' E 023°27'1416.8
2014-Jul-12 23:33N 37°13' E 023°34'1716.7
2014-Jul-12 22:32N 37°29' E 023°41'1616.3
2014-Jul-12 21:33N 37°45' E 023°39'13 1.6
2014-Jul-12 13:29N 37°57' E 023°35'0 0.0
2014-Jul-12 12:31N 37°57' E 023°35'0 0.0
2014-Jul-12 11:31N 37°57' E 023°35'0 0.0
2014-Jul-12 10:31N 37°57' E 023°35'0 0.0
2014-Jul-12 09:31N 37°57' E 023°35'0 0.0
2014-Jul-12 08:31N 37°57' E 023°35'0 0.0
2014-Jul-12 07:31N 37°57' E 023°35'0 0.0
2014-Jul-12 06:31N 37°57' E 023°35'0 0.0
2014-Jul-12 05:31N 37°57' E 023°35'3 3.0
2014-Jul-12 04:33N 37°54' E 023°36'3 3.3
2014-Jul-12 03:33N 37°51' E 023°37'1 0.7
2014-Jul-12 02:33N 37°51' E 023°36'1 0.8
2014-Jul-12 01:33N 37°51' E 023°37'3 3.0
2014-Jul-12 00:33N 37°50' E 023°41'1514.8
2014-Jul-11 23:32N 37°36' E 023°47'3816.7
2014-Jul-11 21:14N 37°00' E 024°05'1616.6
2014-Jul-11 20:15N 36°45' E 024°12'1216.3
2014-Jul-11 19:33N 36°35' E 024°19'1616.1
2014-Jul-11 18:33N 36°26' E 024°36'1615.8
2014-Jul-11 17:32N 36°18' E 024°53'1616.1
2014-Jul-11 16:33N 36°09' E 025°09'1716.9
2014-Jul-11 15:33N 36°01' E 025°27'1716.8
2014-Jul-11 14:33N 35°52' E 025°45'1717.3
2014-Jul-11 13:33N 35°42' E 026°03'1917.4
2014-Jul-11 12:27N 35°32' E 026°23'1517.1
2014-Jul-11 11:33N 35°24' E 026°38'18216.0
2014-Jul-11 00:13N 34°18' E 030°05'5715.6
2014-Jul-10 20:33N 33°58' E 031°09'1615.6
2014-Jul-10 19:34N 33°52' E 031°27'1615.7
2014-Jul-10 18:34N 33°47' E 031°45'1615.7
2014-Jul-10 17:34N 33°41' E 032°02'1615.8
2014-Jul-10 16:34N 33°36' E 032°20'1615.7
2014-Jul-10 15:33N 33°30' E 032°38'1615.7
2014-Jul-10 14:33N 33°25' E 032°55'1615.6
2014-Jul-10 13:33N 33°20' E 033°13'1615.9
2014-Jul-10 12:34N 33°15' E 033°31'1616.0
2014-Jul-10 11:34N 33°08' E 033°49'1615.7
2014-Jul-10 10:33N 33°03' E 034°06'1616.0
2014-Jul-10 09:34N 32°60' E 034°25'1515.1
2014-Jul-10 08:33N 32°57' E 034°43'1714.4
2014-Jul-10 07:22N 32°51' E 035°01'2 0.2
2014-Jul-09 23:23N 32°49' E 035°01'0 0.0
2014-Jul-09 22:11N 32°49' E 035°01'0 0.0
2014-Jul-09 20:17N 32°49' E 035°01'0 0.0
2014-Jul-09 19:05N 32°49' E 035°01'0 0.0
2014-Jul-09 18:32N 32°49' E 035°01'0 0.0
2014-Jul-09 17:29N 32°49' E 035°01'0 0.0
2014-Jul-09 16:29N 32°49' E 035°01'0 0.0
2014-Jul-09 15:32N 32°49' E 035°01'0 0.0
2014-Jul-09 14:32N 32°49' E 035°01'0 0.0
2014-Jul-09 11:29N 32°49' E 035°01'0 0.0
2014-Jul-09 10:29N 32°49' E 035°01'0 0.0
2014-Jul-09 08:29N 32°49' E 035°01'0 0.0
2014-Jul-09 06:32N 32°49' E 035°01'0 0.0
2014-Jul-09 05:26N 32°49' E 035°01'4 2.0
2014-Jul-09 03:19N 32°52' E 034°58'7 9.1
2014-Jul-09 02:30N 32°49' E 034°50'1415.1
2014-Jul-09 01:33N 32°35' E 034°45'1515.0
2014-Jul-09 00:33N 32°21' E 034°40'1615.0
2014-Jul-08 23:31N 32°06' E 034°35'1313.9
2014-Jul-08 22:34N 31°53' E 034°33'6 0.9
2014-Jul-08 16:12N 31°50' E 034°39'  
Track history (hours):
 
Tides and Currents Weather Stations Pressure Air Temp Water Temp Dewpoint Dewpoint Depression Visibility Wind Speed Wind Dir Waves Ship Positions

Zim Rio Grande

Last reported at 2014-Jul-18 15:25 UTC. Time now 2014-Jul-26 01:08 UTC.
Position N 36°45' W 001°45'.

Length 260 m; draft 11.6 m.

Type: Ship (hazmat cat A). MMSI: 249253000.

Date/timePositionNaut miles runAvg speedWind from/ knotsBaromVisibWave heightAir tempDewpointWater temp
2014-Jul-18 15:25N 36°45' W 001°45'5918.1
2014-Jul-18 12:09N 37°23' W 000°49'1827.9
2014-Jul-18 11:31N 37°36' W 000°33'1010.8
2014-Jul-18 10:33N 37°44' W 000°25'2623.7
2014-Jul-18 09:27N 38°06' W 000°08'910.6
2014-Jul-18 08:33N 38°15' W 000°02'1817.6
2014-Jul-18 07:31N 38°30' E 000°11'1817.4
2014-Jul-18 06:31N 38°44' E 000°24'1717.9
2014-Jul-18 05:33N 39°00' E 000°31'1818.1
2014-Jul-18 04:34N 39°17' E 000°39'1817.9
2014-Jul-18 03:33N 39°34' E 000°46'1817.6
2014-Jul-18 02:33N 39°51' E 000°53'1717.4
2014-Jul-18 01:33N 40°08' E 000°58'1717.2
2014-Jul-18 00:33N 40°25' E 001°03'1717.2
2014-Jul-17 23:33N 40°42' E 001°07'1817.7
2014-Jul-17 22:33N 40°59' E 001°11'7 5.5
2014-Jul-17 21:21N 41°05' E 001°13'0 0.0
2014-Jul-17 19:09N 41°05' E 001°13'0 0.0
2014-Jul-17 18:33N 41°05' E 001°13'0 0.0
2014-Jul-17 17:30N 41°05' E 001°13'0 0.0
2014-Jul-17 16:33N 41°05' E 001°13'0 0.0
2014-Jul-17 15:30N 41°05' E 001°13'0 0.0
2014-Jul-17 14:33N 41°05' E 001°13'0 0.0
2014-Jul-17 13:33N 41°05' E 001°13'0 0.0
2014-Jul-17 08:33N 41°05' E 001°13'0 0.0
2014-Jul-17 07:27N 41°05' E 001°13'0 0.0
2014-Jul-17 06:21N 41°05' E 001°13'0 0.0
2014-Jul-17 05:14N 41°05' E 001°13'2 2.6
2014-Jul-17 04:27N 41°03' E 001°12'1313.0
2014-Jul-17 03:29N 41°04' E 001°29'1414.9
2014-Jul-17 02:33N 41°06' E 001°48'1413.9
2014-Jul-17 01:32N 41°07' E 002°06'1514.2
2014-Jul-17 00:31N 41°09' E 002°25'1313.8
2014-Jul-16 23:33N 41°16' E 002°40'1514.5
2014-Jul-16 22:33N 41°23' E 002°57'1414.5
2014-Jul-16 21:33N 41°30' E 003°14'1514.5
2014-Jul-16 20:33N 41°37' E 003°31'1514.5
2014-Jul-16 19:31N 41°45' E 003°49'1814.4
2014-Jul-16 18:18N 41°54' E 004°09'1114.3
2014-Jul-16 17:33N 41°59' E 004°22'1414.3
2014-Jul-16 16:33N 42°06' E 004°38'1414.4
2014-Jul-16 15:33N 42°13' E 004°55'1414.3
2014-Jul-16 14:33N 42°20' E 005°12'1414.3
2014-Jul-16 13:33N 42°27' E 005°29'1414.3
2014-Jul-16 12:33N 42°34' E 005°46'1414.3
2014-Jul-16 11:33N 42°41' E 006°02'1414.2
2014-Jul-16 10:34N 42°48' E 006°19'1414.3
2014-Jul-16 09:33N 42°56' E 006°35'1414.3
2014-Jul-16 08:33N 43°04' E 006°52'1414.4
2014-Jul-16 07:33N 43°13' E 007°07'1414.3
2014-Jul-16 06:33N 43°22' E 007°23'1414.2
2014-Jul-16 05:33N 43°29' E 007°39'1414.3
2014-Jul-16 04:33N 43°38' E 007°55'1414.3
2014-Jul-16 03:33N 43°47' E 008°10'1414.3
2014-Jul-16 02:33N 43°56' E 008°25'1414.3
2014-Jul-16 01:33N 44°06' E 008°39'1414.3
2014-Jul-16 00:33N 44°17' E 008°53'8 7.7
2014-Jul-15 23:33N 44°24' E 008°54'0 0.1
2014-Jul-15 22:31N 44°24' E 008°54'0 0.0
2014-Jul-15 21:31N 44°24' E 008°54'0 0.0
2014-Jul-15 20:31N 44°24' E 008°54'0 0.0
2014-Jul-15 19:31N 44°24' E 008°54'0 0.0
2014-Jul-15 18:28N 44°24' E 008°54'0 0.0
2014-Jul-15 17:31N 44°24' E 008°54'0 0.0
2014-Jul-15 16:31N 44°24' E 008°54'0 0.0
2014-Jul-15 15:28N 44°24' E 008°54'0 0.0
2014-Jul-15 14:31N 44°24' E 008°54'0 0.0
2014-Jul-15 13:31N 44°24' E 008°54'0 0.0
2014-Jul-15 12:31N 44°24' E 008°54'0 0.0
2014-Jul-15 11:31N 44°24' E 008°54'0 0.0
2014-Jul-15 10:31N 44°24' E 008°54'0 0.0
2014-Jul-15 09:31N 44°24' E 008°54'0 0.0
2014-Jul-15 08:31N 44°24' E 008°54'2 2.6
2014-Jul-15 07:33N 44°23' E 008°57'1212.0
2014-Jul-15 06:33N 44°12' E 009°03'1717.2
2014-Jul-15 05:33N 43°56' E 009°11'1717.0
2014-Jul-15 04:33N 43°40' E 009°19'1717.3
2014-Jul-15 03:33N 43°23' E 009°27'1717.5
2014-Jul-15 02:33N 43°07' E 009°35'2417.7
2014-Jul-15 01:13N 42°44' E 009°46'73215.6
2014-Jul-13 02:19N 36°28' E 023°21'1316.8
2014-Jul-13 01:33N 36°41' E 023°22'2016.7
2014-Jul-13 00:22N 37°00' E 023°27'1416.8
2014-Jul-12 23:33N 37°13' E 023°34'1716.7
2014-Jul-12 22:32N 37°29' E 023°41'1616.3
2014-Jul-12 21:33N 37°45' E 023°39'13 1.6
2014-Jul-12 13:29N 37°57' E 023°35'0 0.0
2014-Jul-12 12:31N 37°57' E 023°35'0 0.0
2014-Jul-12 11:31N 37°57' E 023°35'0 0.0
2014-Jul-12 10:31N 37°57' E 023°35'0 0.0
2014-Jul-12 09:31N 37°57' E 023°35'0 0.0
2014-Jul-12 08:31N 37°57' E 023°35'0 0.0
2014-Jul-12 07:31N 37°57' E 023°35'0 0.0
2014-Jul-12 06:31N 37°57' E 023°35'0 0.0
2014-Jul-12 05:31N 37°57' E 023°35'3 3.0
2014-Jul-12 04:33N 37°54' E 023°36'3 3.3
2014-Jul-12 03:33N 37°51' E 023°37'1 0.7
2014-Jul-12 02:33N 37°51' E 023°36'1 0.8
2014-Jul-12 01:33N 37°51' E 023°37'3 3.0
2014-Jul-12 00:33N 37°50' E 023°41'1514.8
2014-Jul-11 23:32N 37°36' E 023°47'3816.7
2014-Jul-11 21:14N 37°00' E 024°05'1616.6
2014-Jul-11 20:15N 36°45' E 024°12'1216.3
2014-Jul-11 19:33N 36°35' E 024°19'1616.1
2014-Jul-11 18:33N 36°26' E 024°36'1615.8
2014-Jul-11 17:32N 36°18' E 024°53'1616.1
2014-Jul-11 16:33N 36°09' E 025°09'1716.9
2014-Jul-11 15:33N 36°01' E 025°27'1716.8
2014-Jul-11 14:33N 35°52' E 025°45'1717.3
2014-Jul-11 13:33N 35°42' E 026°03'1917.4
2014-Jul-11 12:27N 35°32' E 026°23'1517.1
2014-Jul-11 11:33N 35°24' E 026°38'18216.0
2014-Jul-11 00:13N 34°18' E 030°05'5715.6
2014-Jul-10 20:33N 33°58' E 031°09'1615.6
2014-Jul-10 19:34N 33°52' E 031°27'1615.7
2014-Jul-10 18:34N 33°47' E 031°45'1615.7
2014-Jul-10 17:34N 33°41' E 032°02'1615.8
2014-Jul-10 16:34N 33°36' E 032°20'1615.7
2014-Jul-10 15:33N 33°30' E 032°38'1615.7
2014-Jul-10 14:33N 33°25' E 032°55'1615.6
2014-Jul-10 13:33N 33°20' E 033°13'1615.9
2014-Jul-10 12:34N 33°15' E 033°31'1616.0
2014-Jul-10 11:34N 33°08' E 033°49'1615.7
2014-Jul-10 10:33N 33°03' E 034°06'1616.0
2014-Jul-10 09:34N 32°60' E 034°25'1515.1
2014-Jul-10 08:33N 32°57' E 034°43'1714.4
2014-Jul-10 07:22N 32°51' E 035°01'2 0.2
2014-Jul-09 23:23N 32°49' E 035°01'0 0.0
2014-Jul-09 22:11N 32°49' E 035°01'0 0.0
2014-Jul-09 20:17N 32°49' E 035°01'0 0.0
2014-Jul-09 19:05N 32°49' E 035°01'0 0.0
2014-Jul-09 18:32N 32°49' E 035°01'0 0.0
2014-Jul-09 17:29N 32°49' E 035°01'0 0.0
2014-Jul-09 16:29N 32°49' E 035°01'0 0.0
2014-Jul-09 15:32N 32°49' E 035°01'0 0.0
2014-Jul-09 14:32N 32°49' E 035°01'0 0.0
2014-Jul-09 11:29N 32°49' E 035°01'0 0.0
2014-Jul-09 10:29N 32°49' E 035°01'0 0.0
2014-Jul-09 08:29N 32°49' E 035°01'0 0.0
2014-Jul-09 06:32N 32°49' E 035°01'0 0.0
2014-Jul-09 05:26N 32°49' E 035°01'4 2.0
2014-Jul-09 03:19N 32°52' E 034°58'7 9.1
2014-Jul-09 02:30N 32°49' E 034°50'1415.1
2014-Jul-09 01:33N 32°35' E 034°45'1515.0
2014-Jul-09 00:33N 32°21' E 034°40'1615.0
2014-Jul-08 23:31N 32°06' E 034°35'1313.9
2014-Jul-08 22:34N 31°53' E 034°33'6 0.9
2014-Jul-08 16:12N 31°50' E 034°39'  

Dump ship's entire track history